Terminal Aerodrome Forecast
Issued by NWS Jackson, MS

Home | Current Version | Previous Version | Text Only | Print | Product List | Glossary On
Versions: 1 2 3 4 5 6 7 8 9 10 11 12 13 14
000
FTUS44 KJAN 221733
TAFGLH
TAF
KGLH 221733Z 2218/2318 04005KT P6SM VCSH BKN120
     FM230900 00000KT 4SM BR BKN025
     FM231300 35005KT P6SM SCT030 BKN250=

USA.gov is the U.S. government's official web portal to all federal, state and local government web resources and services.